Rome, Georgia
Current Conditions -  °F | °C
As of 7:53 PM on Sunday 21 Dec 2014 (Local Time) from KRMG Reporting Station
Overcast Overcast  
Wind Chill: 50°   Ceiling: 2100
Heat Index: 50°   Visibility: 10mi
Dew Point: 44°   Wind: 5mph
Humidity: 80%   Direction: 130°SE
Pressure: 30.1"   Gusts: NA
Location:  34.25°N, 85.17°W
Report Text: KRMG 220053Z AUTO 13004KT 10SM OVC021 10/07 A3010 RMK AO2 SLP189 T01000067
Loading
Personal Weather Stations






























Interactive Weather Map New forecast layout! Learn more

10-Day Weather Forecast

Advertisements
Track Severe Weather on mobile